createdAt,value
2018-05-18T00:01:51.902Z,48.85
2018-05-18T00:04:19.297Z,48.97
2018-05-18T00:06:46.703Z,45.85
2018-05-18T00:09:14.037Z,39.70
2018-05-18T00:11:41.411Z,39.60
2018-05-18T00:14:08.990Z,51.28
2018-05-18T00:16:36.309Z,49.88
2018-05-18T00:19:04.015Z,42.30
2018-05-18T00:21:31.328Z,50.03
2018-05-18T00:23:58.717Z,51.55
2018-05-18T00:26:26.035Z,51.80
2018-05-18T00:28:53.633Z,53.38
2018-05-18T00:31:20.958Z,45.53
2018-05-18T00:33:48.290Z,52.55
2018-05-18T00:36:15.909Z,57.00
2018-05-18T00:38:43.469Z,46.10
2018-05-18T00:41:11.131Z,53.45
2018-05-18T00:43:38.450Z,47.97
2018-05-18T00:46:05.764Z,51.28
2018-05-18T00:48:33.086Z,51.47
2018-05-18T00:51:00.431Z,47.97
2018-05-18T00:53:27.757Z,43.92
2018-05-18T00:55:55.081Z,55.15
2018-05-18T00:58:22.406Z,58.33
2018-05-18T01:00:49.772Z,41.75
2018-05-18T01:03:17.134Z,46.85
2018-05-18T01:05:44.470Z,46.88
2018-05-18T01:08:11.818Z,52.47
2018-05-18T01:10:39.156Z,52.95
2018-05-18T01:13:06.482Z,52.53
2018-05-18T01:15:34.106Z,50.95
2018-05-18T01:18:01.466Z,50.55
2018-05-18T01:20:28.788Z,49.60
2018-05-18T01:22:56.168Z,42.23
2018-05-18T01:25:23.726Z,49.30
2018-05-18T01:27:51.448Z,53.58
2018-05-18T01:30:18.739Z,50.45
2018-05-18T01:32:46.062Z,42.72
2018-05-18T01:35:13.662Z,45.70
2018-05-18T01:37:41.011Z,48.42
2018-05-18T01:40:08.683Z,53.63
2018-05-18T01:42:36.034Z,42.20
2018-05-18T01:45:03.367Z,46.50
2018-05-18T01:47:30.715Z,44.70
2018-05-18T01:49:58.307Z,43.85
2018-05-18T01:52:25.660Z,43.28
2018-05-18T01:54:53.019Z,48.65
2018-05-18T01:57:20.325Z,36.92
2018-05-18T01:59:47.930Z,41.80
2018-05-18T02:02:15.596Z,41.40
2018-05-18T02:04:43.255Z,45.85
2018-05-18T02:07:10.818Z,39.05
2018-05-18T02:09:38.413Z,44.90
2018-05-18T02:12:06.039Z,40.85
2018-05-18T02:14:33.702Z,38.57
2018-05-18T02:17:01.367Z,45.42
2018-05-18T02:19:28.693Z,50.88
2018-05-18T02:21:56.048Z,35.72
2018-05-18T02:24:23.630Z,33.22
2018-05-18T02:26:50.979Z,34.75
2018-05-18T02:29:18.347Z,35.78
2018-05-18T02:31:45.700Z,40.97
2018-05-18T02:34:13.026Z,41.65
2018-05-18T02:36:40.614Z,41.80
2018-05-18T02:39:08.278Z,33.73
2018-05-18T02:41:35.861Z,35.95
2018-05-18T02:44:03.427Z,43.80
2018-05-18T02:46:30.764Z,36.15
2018-05-18T02:48:58.143Z,35.90
2018-05-18T02:51:25.458Z,39.40
2018-05-18T02:53:53.131Z,46.55
2018-05-18T02:56:20.792Z,36.78
2018-05-18T02:58:48.176Z,40.90
2018-05-18T03:01:15.524Z,39.67
2018-05-18T03:03:42.876Z,35.97
2018-05-18T03:06:10.523Z,42.17
2018-05-18T03:08:38.184Z,41.60
2018-05-18T03:11:05.535Z,36.25
2018-05-18T03:13:32.900Z,43.17
2018-05-18T03:16:00.243Z,37.67
2018-05-18T03:18:27.603Z,45.22
2018-05-18T03:20:54.974Z,38.67
2018-05-18T03:23:22.619Z,45.63
2018-05-18T03:25:49.938Z,51.63
2018-05-18T03:28:17.741Z,43.42
2018-05-18T03:30:45.127Z,49.47
2018-05-18T03:33:12.757Z,46.75
2018-05-18T03:35:40.124Z,42.40
2018-05-18T03:38:07.457Z,45.03
2018-05-18T03:40:34.786Z,38.40
2018-05-18T03:43:02.113Z,48.50
2018-05-18T03:45:29.474Z,44.10
2018-05-18T03:47:57.096Z,45.95
2018-05-18T03:50:24.759Z,38.37
2018-05-18T03:52:52.077Z,51.42
2018-05-18T03:55:19.470Z,41.05
2018-05-18T03:57:47.132Z,47.38
2018-05-18T04:00:14.794Z,44.28
2018-05-18T04:02:48.196Z,38.78
2018-05-18T04:05:21.424Z,43.75
2018-05-18T04:07:54.951Z,45.10
2018-05-18T04:10:22.313Z,39.92
2018-05-18T04:12:49.558Z,48.20
2018-05-18T04:15:17.253Z,36.70
2018-05-18T04:17:44.569Z,33.45
2018-05-18T04:20:11.928Z,39.95
2018-05-18T04:22:39.266Z,35.05
2018-05-18T04:25:06.879Z,34.33
2018-05-18T04:27:34.231Z,32.43
2018-05-18T04:30:01.576Z,38.30
2018-05-18T04:32:28.889Z,31.37
2018-05-18T04:34:56.264Z,33.75
2018-05-18T04:37:23.610Z,42.28
2018-05-18T04:39:50.950Z,32.08
2018-05-18T04:42:18.262Z,32.55
2018-05-18T04:44:45.610Z,41.03
2018-05-18T04:47:13.291Z,45.63
2018-05-18T04:49:40.616Z,34.43
2018-05-18T04:52:08.198Z,41.13
2018-05-18T04:54:35.525Z,36.70
2018-05-18T04:57:03.215Z,37.63
2018-05-18T04:59:30.769Z,42.40
2018-05-18T05:01:58.077Z,37.50
2018-05-18T05:04:25.685Z,46.15
2018-05-18T05:06:53.007Z,48.23
2018-05-18T05:09:20.374Z,41.20
2018-05-18T05:11:47.734Z,43.83
2018-05-18T05:14:15.076Z,43.17
2018-05-18T05:16:42.522Z,40.85
2018-05-18T05:19:09.789Z,43.58
2018-05-18T05:21:37.152Z,34.03
2018-05-18T05:24:04.503Z,40.57
2018-05-18T05:26:32.085Z,39.95
2018-05-18T05:28:59.755Z,45.50
2018-05-18T05:31:27.122Z,38.78
2018-05-18T05:33:54.479Z,48.13
2018-05-18T05:36:21.833Z,34.45
2018-05-18T05:38:49.178Z,39.95
2018-05-18T05:41:16.518Z,47.30
2018-05-18T05:43:43.846Z,43.10
2018-05-18T05:46:11.204Z,38.00
2018-05-18T05:48:38.526Z,43.90
2018-05-18T05:51:06.155Z,42.20
2018-05-18T05:53:33.494Z,43.13
2018-05-18T05:56:01.066Z,37.20
2018-05-18T05:58:28.453Z,39.85
2018-05-18T06:00:56.091Z,38.80
2018-05-18T06:03:23.430Z,42.40
2018-05-18T06:05:50.791Z,33.53
2018-05-18T06:08:18.109Z,36.95
2018-05-18T06:10:45.482Z,34.93
2018-05-18T06:13:13.070Z,27.90
2018-05-18T06:15:40.731Z,34.72
2018-05-18T06:18:08.080Z,37.35
2018-05-18T06:20:35.429Z,33.50
2018-05-18T06:23:02.790Z,36.80
2018-05-18T06:25:30.181Z,31.70
2018-05-18T06:27:57.508Z,36.45
2018-05-18T06:30:24.858Z,35.03
2018-05-18T06:32:52.418Z,29.42
2018-05-18T06:35:19.767Z,27.05
2018-05-18T06:37:47.119Z,32.80
2018-05-18T06:40:14.482Z,32.25
2018-05-18T06:42:41.818Z,41.80
2018-05-18T06:45:09.171Z,38.90
2018-05-18T06:47:36.859Z,31.70
2018-05-18T06:50:04.173Z,35.08
2018-05-18T06:52:31.619Z,33.90
2018-05-18T06:54:58.857Z,35.63
2018-05-18T06:57:26.487Z,31.23
2018-05-18T06:59:54.143Z,29.35
2018-05-18T07:02:21.811Z,39.58
2018-05-18T07:04:49.155Z,33.63
2018-05-18T07:07:16.503Z,28.40
2018-05-18T07:09:43.862Z,42.97
2018-05-18T07:12:11.220Z,28.95
2018-05-18T07:14:38.529Z,29.55
2018-05-18T07:17:05.864Z,29.52
2018-05-18T07:19:33.206Z,28.37
2018-05-18T07:22:00.854Z,36.20
2018-05-18T07:24:28.199Z,27.52
2018-05-18T07:26:55.883Z,24.87
2018-05-18T07:29:23.232Z,25.10
2018-05-18T07:31:50.609Z,20.98
2018-05-18T07:34:17.909Z,28.80
2018-05-18T07:36:45.605Z,27.87
2018-05-18T07:41:41.427Z,25.35
2018-05-18T07:44:08.748Z,25.37
2018-05-18T07:46:36.074Z,27.05
2018-05-18T07:49:03.422Z,23.83
2018-05-18T07:51:30.790Z,25.98
2018-05-18T07:53:58.181Z,22.08
2018-05-18T07:56:25.502Z,26.75
2018-05-18T07:58:52.843Z,29.15
2018-05-18T08:01:20.487Z,24.70
2018-05-18T08:03:47.805Z,24.67
2018-05-18T08:06:15.161Z,25.52
2018-05-18T08:08:42.473Z,22.60
2018-05-18T08:11:09.839Z,28.10
2018-05-18T08:13:37.149Z,24.42
2018-05-18T08:16:04.518Z,25.37
2018-05-18T08:18:32.173Z,26.67
2018-05-18T08:20:59.489Z,24.98
2018-05-18T08:23:33.135Z,28.08
2018-05-18T08:26:00.515Z,34.65
2018-05-18T08:28:27.891Z,31.65
2018-05-18T08:31:01.446Z,27.40
2018-05-18T08:33:28.773Z,25.92
2018-05-18T08:35:56.094Z,24.90
2018-05-18T08:38:23.718Z,29.45
2018-05-18T08:40:51.119Z,28.65
2018-05-18T08:43:18.470Z,25.12
2018-05-18T08:45:45.808Z,26.67
2018-05-18T08:48:13.450Z,19.83
2018-05-18T08:50:41.030Z,26.73
2018-05-18T08:53:08.342Z,31.47
2018-05-18T08:55:35.693Z,31.12
2018-05-18T08:58:03.270Z,28.20
2018-05-18T09:00:30.695Z,29.90
2018-05-18T09:02:57.982Z,34.92
2018-05-18T09:05:25.285Z,27.17
2018-05-18T09:07:52.606Z,28.02
2018-05-18T09:10:19.917Z,27.42
2018-05-18T09:12:47.285Z,32.80
2018-05-18T09:15:14.598Z,28.17
2018-05-18T09:17:41.952Z,28.30
2018-05-18T09:20:09.292Z,28.95
2018-05-18T09:22:36.931Z,21.87
2018-05-18T09:25:04.286Z,31.60
2018-05-18T09:27:31.951Z,30.92
2018-05-18T09:29:59.611Z,30.77
2018-05-18T09:32:26.974Z,24.35
2018-05-18T09:34:54.296Z,25.20
2018-05-18T09:37:21.644Z,26.55
2018-05-18T09:39:49.251Z,27.05
2018-05-18T09:42:16.894Z,27.47
2018-05-18T09:44:44.454Z,26.83
2018-05-18T09:47:19.917Z,32.10
2018-05-18T09:50:00.651Z,29.83
2018-05-18T09:52:39.830Z,28.15
2018-05-18T09:55:09.378Z,28.67
2018-05-18T09:57:36.550Z,24.23
2018-05-18T10:00:03.896Z,24.70
2018-05-18T10:02:31.234Z,28.55
2018-05-18T10:04:58.605Z,32.13
2018-05-18T10:07:25.973Z,22.67
2018-05-18T10:09:53.647Z,25.30
2018-05-18T10:12:21.182Z,19.40
2018-05-18T10:14:48.453Z,27.95
2018-05-18T10:17:15.778Z,26.30
2018-05-18T10:19:43.127Z,33.90
2018-05-18T10:22:10.504Z,26.13
2018-05-18T10:24:37.839Z,22.05
2018-05-18T10:27:05.466Z,24.67
2018-05-18T10:29:32.875Z,24.87
2018-05-18T10:32:00.202Z,29.87
2018-05-18T10:34:27.694Z,29.92
2018-05-18T10:36:54.996Z,29.63
2018-05-18T10:39:22.340Z,23.33
2018-05-18T10:41:49.911Z,26.33
2018-05-18T10:44:17.667Z,26.45
2018-05-18T10:46:45.926Z,31.08
2018-05-18T10:49:13.266Z,27.25
2018-05-18T10:51:40.738Z,26.12
2018-05-18T10:54:09.058Z,26.15
2018-05-18T10:56:36.362Z,25.50
2018-05-18T10:59:03.718Z,27.83
2018-05-18T11:01:31.022Z,28.87
2018-05-18T11:03:58.357Z,28.73
2018-05-18T11:06:25.696Z,31.05
2018-05-18T11:08:53.074Z,30.80
2018-05-18T11:11:20.416Z,24.00
2018-05-18T11:13:48.062Z,29.05
2018-05-18T11:16:15.395Z,25.80
2018-05-18T11:18:43.075Z,25.83
2018-05-18T11:21:10.414Z,29.23
2018-05-18T11:23:37.989Z,23.23
2018-05-18T11:26:05.298Z,24.40
2018-05-18T11:28:32.693Z,21.05
2018-05-18T11:30:59.994Z,27.60
2018-05-18T11:33:27.317Z,20.62
2018-05-18T11:35:54.667Z,20.23
2018-05-18T11:38:22.222Z,19.93
2018-05-18T11:40:49.750Z,23.83
2018-05-18T11:43:17.111Z,22.30
2018-05-18T11:45:44.646Z,23.87
2018-05-18T11:48:12.250Z,21.58
2018-05-18T11:50:39.562Z,25.45
2018-05-18T11:53:06.897Z,24.00
2018-05-18T11:55:34.206Z,27.02
2018-05-18T11:58:01.887Z,20.98
2018-05-18T12:00:29.422Z,30.23
2018-05-18T12:02:57.082Z,27.50
2018-05-18T12:05:24.347Z,26.20
2018-05-18T12:07:52.023Z,22.70
2018-05-18T12:10:19.344Z,23.33
2018-05-18T12:12:46.675Z,24.15
2018-05-18T12:15:14.023Z,21.58
2018-05-18T12:17:41.648Z,21.08
2018-05-18T12:20:09.311Z,27.40
2018-05-18T12:22:36.975Z,31.83
2018-05-18T12:25:04.326Z,26.77
2018-05-18T12:27:31.664Z,25.83
2018-05-18T12:29:59.024Z,26.70
2018-05-18T12:32:26.594Z,25.27
2018-05-18T12:34:53.962Z,28.50
2018-05-18T12:37:21.309Z,26.65
2018-05-18T12:39:48.966Z,28.27
2018-05-18T12:42:16.274Z,26.48
2018-05-18T12:44:43.725Z,23.85
2018-05-18T12:47:11.063Z,34.85
2018-05-18T12:49:38.699Z,35.45
2018-05-18T12:52:06.358Z,35.83
2018-05-18T12:54:33.711Z,35.45
2018-05-18T12:57:01.059Z,30.98
2018-05-18T12:59:28.503Z,32.97
2018-05-18T13:01:56.088Z,31.25
2018-05-18T13:04:23.410Z,27.90
2018-05-18T13:06:50.762Z,36.58
2018-05-18T13:09:18.090Z,30.62
2018-05-18T13:11:45.427Z,32.95
2018-05-18T13:14:12.771Z,30.45
2018-05-18T13:16:40.119Z,35.10
2018-05-18T13:19:07.780Z,36.40
2018-05-18T13:21:35.107Z,32.22
2018-05-18T13:24:02.467Z,34.90
2018-05-18T13:26:30.048Z,40.12
2018-05-18T13:28:57.399Z,33.13
2018-05-18T13:31:24.730Z,31.67
2018-05-18T13:33:52.320Z,34.28
2018-05-18T13:36:19.679Z,39.47
2018-05-18T13:38:47.060Z,26.93
2018-05-18T13:41:14.373Z,27.62
2018-05-18T13:43:41.719Z,32.53
2018-05-18T13:46:09.075Z,30.80
2018-05-18T13:48:36.398Z,26.98
2018-05-18T13:51:03.721Z,31.58
2018-05-18T13:53:31.088Z,31.77
2018-05-18T13:55:58.723Z,35.67
2018-05-18T13:58:26.072Z,26.55
2018-05-18T14:00:53.430Z,26.70
2018-05-18T14:03:21.097Z,29.70
2018-05-18T14:05:48.414Z,27.00
2018-05-18T14:08:15.767Z,34.58
2018-05-18T14:10:43.145Z,31.50
2018-05-18T14:13:10.504Z,30.53
2018-05-18T14:15:38.095Z,27.00
2018-05-18T14:18:05.437Z,34.03
2018-05-18T14:20:32.807Z,37.93
2018-05-18T14:23:00.350Z,27.80
2018-05-18T14:25:27.670Z,34.17
2018-05-18T14:27:54.978Z,28.50
2018-05-18T14:30:22.301Z,29.73
2018-05-18T14:32:49.975Z,25.55
2018-05-18T14:35:17.318Z,31.48
2018-05-18T14:37:44.890Z,24.87
2018-05-18T14:40:12.247Z,22.80
2018-05-18T14:42:39.902Z,25.45
2018-05-18T14:45:07.629Z,29.35
2018-05-18T14:47:34.958Z,35.57
2018-05-18T14:50:02.582Z,29.23
2018-05-18T14:52:29.902Z,28.02
2018-05-18T14:54:57.242Z,29.30
2018-05-18T14:57:24.860Z,32.55
2018-05-18T14:59:52.244Z,28.30
2018-05-18T15:02:19.874Z,27.23
2018-05-18T15:04:47.422Z,27.50
2018-05-18T15:07:14.775Z,30.10
2018-05-18T15:09:42.153Z,34.80
2018-05-18T15:12:09.487Z,30.37
2018-05-18T15:14:36.827Z,35.28
2018-05-18T15:17:04.541Z,31.73
2018-05-18T15:19:31.904Z,29.27
2018-05-18T15:21:59.255Z,27.05
2018-05-18T15:24:26.891Z,31.52
2018-05-18T15:26:54.215Z,28.80
2018-05-18T15:29:21.518Z,28.35
2018-05-18T15:31:48.850Z,26.93
2018-05-18T15:34:16.154Z,28.17
2018-05-18T15:36:43.702Z,28.90
2018-05-18T15:39:11.036Z,23.30
2018-05-18T15:41:38.391Z,24.63
2018-05-18T15:44:05.930Z,29.60
2018-05-18T15:46:33.319Z,24.10
2018-05-18T15:49:00.862Z,27.20
2018-05-18T15:51:28.227Z,22.00
2018-05-18T15:53:55.556Z,26.20
2018-05-18T15:56:22.900Z,22.60
2018-05-18T15:58:50.225Z,22.85
2018-05-18T16:01:17.831Z,29.77
2018-05-18T16:03:45.150Z,31.23
2018-05-18T16:06:12.538Z,28.23
2018-05-18T16:08:39.846Z,31.33
2018-05-18T16:11:07.203Z,32.72
2018-05-18T16:13:34.539Z,30.55
2018-05-18T16:16:01.870Z,31.77
2018-05-18T16:18:29.219Z,25.52
2018-05-18T16:20:56.544Z,24.33
2018-05-18T16:23:23.879Z,26.40
2018-05-18T16:25:51.242Z,31.70
2018-05-18T16:28:18.558Z,26.48
2018-05-18T16:30:46.197Z,29.90
2018-05-18T16:33:13.502Z,27.80
2018-05-18T16:35:40.848Z,27.42
2018-05-18T16:38:08.423Z,24.67
2018-05-18T16:40:35.761Z,36.80
2018-05-18T16:43:03.073Z,25.13
2018-05-18T16:45:30.637Z,25.45
2018-05-18T16:47:57.986Z,23.23
2018-05-18T16:50:25.528Z,25.27
2018-05-18T16:52:53.145Z,20.95
2018-05-18T16:55:20.744Z,33.08
2018-05-18T16:57:48.142Z,26.42
2018-05-18T17:00:15.457Z,27.40
2018-05-18T17:02:43.117Z,24.17
2018-05-18T17:05:10.641Z,22.83
2018-05-18T17:07:38.191Z,27.57
2018-05-18T17:10:05.835Z,30.17
2018-05-18T17:12:33.444Z,28.20
2018-05-18T17:15:01.150Z,30.00
2018-05-18T17:17:28.700Z,24.07
2018-05-18T17:19:56.070Z,22.87
2018-05-18T17:22:23.482Z,22.80
2018-05-18T17:24:51.088Z,25.90
2018-05-18T17:27:18.445Z,24.08
2018-05-18T17:29:45.762Z,24.95
2018-05-18T17:32:13.081Z,29.23
2018-05-18T17:34:40.707Z,25.65
2018-05-18T17:37:08.268Z,29.52
2018-05-18T17:39:35.930Z,31.50
2018-05-18T17:42:03.593Z,32.60
2018-05-18T17:44:30.923Z,25.77
2018-05-18T17:46:58.620Z,29.12
2018-05-18T17:49:25.917Z,31.40
2018-05-18T17:51:53.512Z,28.17
2018-05-18T17:54:20.895Z,31.75
2018-05-18T17:56:48.443Z,23.12
2018-05-18T17:59:15.782Z,27.95
2018-05-18T18:01:43.465Z,22.67
2018-05-18T18:04:10.994Z,31.02
2018-05-18T18:06:38.355Z,27.00
2018-05-18T18:09:05.935Z,29.42
2018-05-18T18:11:33.250Z,23.60
2018-05-18T18:14:00.932Z,33.38
2018-05-18T18:16:28.166Z,24.27
2018-05-18T18:18:55.531Z,25.93
2018-05-18T18:21:22.867Z,27.62
2018-05-18T18:23:50.215Z,31.42
2018-05-18T18:26:17.754Z,29.85
2018-05-18T18:28:45.337Z,26.58
2018-05-18T18:31:12.700Z,21.45
2018-05-18T18:33:40.026Z,26.55
2018-05-18T18:36:07.339Z,27.67
2018-05-18T18:38:34.687Z,29.70
2018-05-18T18:41:01.999Z,29.00
2018-05-18T18:43:29.587Z,26.10
2018-05-18T18:45:56.960Z,28.00
2018-05-18T18:48:24.306Z,26.30
2018-05-18T18:50:51.962Z,28.87
2018-05-18T18:53:19.311Z,28.65
2018-05-18T18:55:46.638Z,26.30
2018-05-18T18:58:14.223Z,33.13
2018-05-18T19:00:41.555Z,28.20
2018-05-18T19:03:09.110Z,24.67
2018-05-18T19:05:36.672Z,22.45
2018-05-18T19:08:04.332Z,21.77
2018-05-18T19:10:32.067Z,26.48
2018-05-18T19:12:59.418Z,30.98
2018-05-18T19:15:27.020Z,34.50
2018-05-18T19:17:54.379Z,24.90
2018-05-18T19:20:21.713Z,25.52
2018-05-18T19:22:49.064Z,21.05
2018-05-18T19:25:16.720Z,28.48
2018-05-18T19:27:44.049Z,32.90
2018-05-18T19:30:11.631Z,30.12
2018-05-18T19:32:38.953Z,27.87
2018-05-18T19:35:06.295Z,22.08
2018-05-18T19:37:33.622Z,28.20
2018-05-18T19:40:00.966Z,24.27
2018-05-18T19:42:28.502Z,30.35
2018-05-18T19:44:55.855Z,26.20
2018-05-18T19:47:23.207Z,26.80
2018-05-18T19:49:50.528Z,30.15
2018-05-18T19:52:17.866Z,27.77
2018-05-18T19:54:45.223Z,22.45
2018-05-18T19:57:12.588Z,28.55
2018-05-18T19:59:39.927Z,23.60
2018-05-18T20:02:07.254Z,23.67
2018-05-18T20:04:34.905Z,23.43
2018-05-18T20:07:02.244Z,26.00
2018-05-18T20:09:29.599Z,30.98
2018-05-18T20:11:57.289Z,27.15
2018-05-18T20:14:24.942Z,29.60
2018-05-18T20:16:52.502Z,19.25
2018-05-18T20:19:19.851Z,29.95
2018-05-18T20:21:47.418Z,30.10
2018-05-18T20:24:14.741Z,32.72
2018-05-18T20:26:42.339Z,30.15
2018-05-18T20:29:09.999Z,34.88
2018-05-18T20:31:37.307Z,30.23
2018-05-18T20:34:04.663Z,29.33
2018-05-18T20:36:32.270Z,32.33
2018-05-18T20:38:59.625Z,32.28
2018-05-18T20:41:26.963Z,24.87
2018-05-18T20:43:54.546Z,34.72
2018-05-18T20:46:22.097Z,25.50
2018-05-18T20:48:49.451Z,31.70
2018-05-18T20:51:16.817Z,28.77
2018-05-18T20:53:44.137Z,28.85
2018-05-18T20:56:11.728Z,33.95
2018-05-18T20:58:39.130Z,27.55
2018-05-18T21:01:06.409Z,23.30
2018-05-18T21:03:33.840Z,29.02
2018-05-18T21:06:01.118Z,35.03
2018-05-18T21:08:28.543Z,29.30
2018-05-18T21:10:55.883Z,33.78
2018-05-18T21:13:23.459Z,30.20
2018-05-18T21:15:50.812Z,31.62
2018-05-18T21:18:18.150Z,21.67
2018-05-18T21:20:45.791Z,24.83
2018-05-18T21:23:13.093Z,28.73
2018-05-18T21:25:40.425Z,26.03
2018-05-18T21:28:07.729Z,28.55
2018-05-18T21:30:35.090Z,26.85
2018-05-18T21:33:02.439Z,30.60
2018-05-18T21:35:29.760Z,32.60
2018-05-18T21:37:57.383Z,29.20
2018-05-18T21:40:24.718Z,30.70
2018-05-18T21:42:52.102Z,27.92
2018-05-18T21:45:19.459Z,26.50
2018-05-18T21:47:46.771Z,28.83
2018-05-18T21:50:14.464Z,33.30
2018-05-18T21:52:41.990Z,24.58
2018-05-18T21:55:09.343Z,28.70
2018-05-18T21:57:36.650Z,33.13
2018-05-18T22:00:04.035Z,32.20
2018-05-18T22:02:31.378Z,30.60
2018-05-18T22:04:58.697Z,33.40
2018-05-18T22:07:26.036Z,27.92
2018-05-18T22:09:53.365Z,28.73
2018-05-18T22:12:20.717Z,22.87
2018-05-18T22:14:48.041Z,26.15
2018-05-18T22:17:15.381Z,27.98
2018-05-18T22:19:42.749Z,25.50
2018-05-18T22:22:10.084Z,29.27
2018-05-18T22:24:37.428Z,20.50
2018-05-18T22:27:04.803Z,30.17
2018-05-18T22:29:32.162Z,23.62
2018-05-18T22:31:59.509Z,30.80
2018-05-18T22:34:26.918Z,27.37
2018-05-18T22:36:54.518Z,24.50
2018-05-18T22:39:21.907Z,21.85
2018-05-18T22:41:49.210Z,28.77
2018-05-18T22:44:16.645Z,25.98
2018-05-18T22:46:44.248Z,24.52
2018-05-18T22:49:11.554Z,28.77
2018-05-18T22:51:38.929Z,25.30
2018-05-18T22:54:06.243Z,25.88
2018-05-18T22:56:33.589Z,27.33
2018-05-18T22:59:00.931Z,32.43
2018-05-18T23:01:28.336Z,32.85
2018-05-18T23:03:55.937Z,23.90
2018-05-18T23:06:23.531Z,25.98
2018-05-18T23:08:50.853Z,22.42
2018-05-18T23:11:18.247Z,19.93
2018-05-18T23:13:45.870Z,22.25
2018-05-18T23:16:13.234Z,21.07
2018-05-18T23:18:40.541Z,29.23
2018-05-18T23:21:07.890Z,21.98
2018-05-18T23:23:35.240Z,28.77
2018-05-18T23:26:02.561Z,23.15
2018-05-18T23:28:29.902Z,26.83
2018-05-18T23:30:57.256Z,27.55
2018-05-18T23:33:24.595Z,26.10
2018-05-18T23:35:51.978Z,24.60
2018-05-18T23:38:19.311Z,22.92
2018-05-18T23:40:46.877Z,31.00
2018-05-18T23:43:14.218Z,22.23
2018-05-18T23:45:41.798Z,28.80
2018-05-18T23:48:09.128Z,23.90
2018-05-18T23:50:36.500Z,25.55
2018-05-18T23:53:03.806Z,28.55
2018-05-18T23:55:31.179Z,26.67
2018-05-18T23:57:58.781Z,26.60
